sensor_id;sensor_type;location;lat;lon;timestamp;P1;durP1;ratioP1;P2;durP2;ratioP2
17636;SDS011;8937;51.236;6.794;2023-06-22T00:07:28;1.85;;;1.40;;
17636;SDS011;8937;51.236;6.794;2023-06-22T00:15:50;1.80;;;1.70;;
17636;SDS011;8937;51.236;6.794;2023-06-22T00:24:13;1.90;;;1.80;;
17636;SDS011;8937;51.236;6.794;2023-06-22T00:32:34;2.00;;;1.90;;
17636;SDS011;8937;51.236;6.794;2023-06-22T00:40:57;6.07;;;1.80;;
17636;SDS011;8937;51.236;6.794;2023-06-22T00:49:18;2.55;;;1.75;;
17636;SDS011;8937;51.236;6.794;2023-06-22T00:57:41;1.60;;;1.50;;
17636;SDS011;8937;51.236;6.794;2023-06-22T01:06:05;1.50;;;1.40;;
17636;SDS011;8937;51.236;6.794;2023-06-22T01:14:32;1.75;;;1.55;;
17636;SDS011;8937;51.236;6.794;2023-06-22T01:23:01;2.33;;;1.70;;
17636;SDS011;8937;51.236;6.794;2023-06-22T01:31:25;4.07;;;1.83;;
17636;SDS011;8937;51.236;6.794;2023-06-22T01:39:49;1.90;;;1.80;;
17636;SDS011;8937;51.236;6.794;2023-06-22T01:48:12;2.95;;;2.35;;
17636;SDS011;8937;51.236;6.794;2023-06-22T01:56:33;2.90;;;2.15;;
17636;SDS011;8937;51.236;6.794;2023-06-22T02:04:57;2.40;;;2.20;;
17636;SDS011;8937;51.236;6.794;2023-06-22T02:13:19;2.25;;;1.90;;
17636;SDS011;8937;51.236;6.794;2023-06-22T02:21:42;3.20;;;2.20;;
17636;SDS011;8937;51.236;6.794;2023-06-22T02:30:04;2.40;;;2.30;;
17636;SDS011;8937;51.236;6.794;2023-06-22T02:38:27;2.70;;;2.50;;
17636;SDS011;8937;51.236;6.794;2023-06-22T02:46:49;4.13;;;2.63;;
17636;SDS011;8937;51.236;6.794;2023-06-22T02:55:12;3.30;;;2.83;;
17636;SDS011;8937;51.236;6.794;2023-06-22T03:03:33;3.08;;;2.83;;
17636;SDS011;8937;51.236;6.794;2023-06-22T03:11:56;3.08;;;2.78;;
17636;SDS011;8937;51.236;6.794;2023-06-22T03:20:17;5.05;;;3.03;;
17636;SDS011;8937;51.236;6.794;2023-06-22T03:28:40;2.75;;;2.55;;
17636;SDS011;8937;51.236;6.794;2023-06-22T03:37:02;3.15;;;2.85;;
17636;SDS011;8937;51.236;6.794;2023-06-22T03:45:25;3.17;;;2.95;;
17636;SDS011;8937;51.236;6.794;2023-06-22T03:53:46;3.17;;;2.97;;
17636;SDS011;8937;51.236;6.794;2023-06-22T04:02:09;5.07;;;3.58;;
17636;SDS011;8937;51.236;6.794;2023-06-22T04:10:30;3.30;;;3.03;;
17636;SDS011;8937;51.236;6.794;2023-06-22T04:18:53;6.28;;;3.45;;
17636;SDS011;8937;51.236;6.794;2023-06-22T04:27:15;4.70;;;3.40;;
17636;SDS011;8937;51.236;6.794;2023-06-22T04:35:38;3.53;;;3.22;;
17636;SDS011;8937;51.236;6.794;2023-06-22T04:44:01;4.20;;;3.40;;
17636;SDS011;8937;51.236;6.794;2023-06-22T04:52:26;4.82;;;3.40;;
17636;SDS011;8937;51.236;6.794;2023-06-22T05:00:47;4.47;;;3.15;;
17636;SDS011;8937;51.236;6.794;2023-06-22T05:09:13;4.07;;;3.03;;
17636;SDS011;8937;51.236;6.794;2023-06-22T05:17:34;3.88;;;3.47;;
17636;SDS011;8937;51.236;6.794;2023-06-22T05:25:57;3.65;;;3.35;;
17636;SDS011;8937;51.236;6.794;2023-06-22T05:34:18;3.30;;;3.05;;
17636;SDS011;8937;51.236;6.794;2023-06-22T05:42:41;3.05;;;2.85;;
17636;SDS011;8937;51.236;6.794;2023-06-22T05:51:03;3.42;;;3.17;;
17636;SDS011;8937;51.236;6.794;2023-06-22T05:59:25;3.30;;;3.00;;
17636;SDS011;8937;51.236;6.794;2023-06-22T06:07:47;5.32;;;3.35;;
17636;SDS011;8937;51.236;6.794;2023-06-22T06:16:10;4.03;;;3.38;;
17636;SDS011;8937;51.236;6.794;2023-06-22T06:24:31;3.45;;;3.15;;
17636;SDS011;8937;51.236;6.794;2023-06-22T06:32:55;3.55;;;3.25;;
17636;SDS011;8937;51.236;6.794;2023-06-22T06:41:17;3.28;;;2.97;;
17636;SDS011;8937;51.236;6.794;2023-06-22T06:49:39;3.63;;;3.33;;
17636;SDS011;8937;51.236;6.794;2023-06-22T06:58:01;3.45;;;3.20;;
17636;SDS011;8937;51.236;6.794;2023-06-22T07:06:25;3.95;;;3.47;;
17636;SDS011;8937;51.236;6.794;2023-06-22T07:14:49;4.07;;;3.72;;
17636;SDS011;8937;51.236;6.794;2023-06-22T07:23:12;4.18;;;3.78;;
17636;SDS011;8937;51.236;6.794;2023-06-22T07:31:34;5.55;;;3.83;;
17636;SDS011;8937;51.236;6.794;2023-06-22T07:39:57;4.07;;;3.72;;
17636;SDS011;8937;51.236;6.794;2023-06-22T07:48:20;4.13;;;3.83;;
17636;SDS011;8937;51.236;6.794;2023-06-22T07:56:43;4.18;;;3.88;;
17636;SDS011;8937;51.236;6.794;2023-06-22T08:05:04;4.70;;;4.30;;
17636;SDS011;8937;51.236;6.794;2023-06-22T08:13:28;4.60;;;4.00;;
17636;SDS011;8937;51.236;6.794;2023-06-22T08:21:50;4.88;;;4.47;;
17636;SDS011;8937;51.236;6.794;2023-06-22T08:30:13;11.60;;;4.32;;
17636;SDS011;8937;51.236;6.794;2023-06-22T08:38:34;5.60;;;4.82;;
17636;SDS011;8937;51.236;6.794;2023-06-22T08:46:57;3.72;;;3.42;;
17636;SDS011;8937;51.236;6.794;2023-06-22T08:55:18;3.97;;;3.60;;
17636;SDS011;8937;51.236;6.794;2023-06-22T09:03:41;3.42;;;3.22;;
17636;SDS011;8937;51.236;6.794;2023-06-22T09:12:03;3.40;;;3.10;;
17636;SDS011;8937;51.236;6.794;2023-06-22T09:20:25;4.15;;;3.60;;
17636;SDS011;8937;51.236;6.794;2023-06-22T09:28:47;3.90;;;3.60;;
17636;SDS011;8937;51.236;6.794;2023-06-22T09:37:10;3.38;;;3.08;;
17636;SDS011;8937;51.236;6.794;2023-06-22T09:45:32;3.00;;;2.80;;
17636;SDS011;8937;51.236;6.794;2023-06-22T09:53:55;3.20;;;3.00;;
17636;SDS011;8937;51.236;6.794;2023-06-22T10:02:17;4.25;;;3.53;;
17636;SDS011;8937;51.236;6.794;2023-06-22T10:10:40;3.38;;;3.13;;
17636;SDS011;8937;51.236;6.794;2023-06-22T10:19:01;3.95;;;3.65;;
17636;SDS011;8937;51.236;6.794;2023-06-22T10:27:24;3.88;;;3.53;;
17636;SDS011;8937;51.236;6.794;2023-06-22T10:35:45;4.20;;;3.72;;
17636;SDS011;8937;51.236;6.794;2023-06-22T10:44:08;4.65;;;4.00;;
17636;SDS011;8937;51.236;6.794;2023-06-22T10:52:29;4.50;;;4.10;;
17636;SDS011;8937;51.236;6.794;2023-06-22T11:00:52;5.05;;;4.63;;
17636;SDS011;8937;51.236;6.794;2023-06-22T11:09:14;5.85;;;4.78;;
17636;SDS011;8937;51.236;6.794;2023-06-22T11:17:40;9.02;;;5.68;;
17636;SDS011;8937;51.236;6.794;2023-06-22T11:26:01;6.15;;;5.55;;
17636;SDS011;8937;51.236;6.794;2023-06-22T11:34:24;7.95;;;6.72;;
17636;SDS011;8937;51.236;6.794;2023-06-22T11:42:45;9.38;;;6.93;;
17636;SDS011;8937;51.236;6.794;2023-06-22T11:51:08;8.88;;;6.78;;
17636;SDS011;8937;51.236;6.794;2023-06-22T11:59:29;7.30;;;6.53;;
17636;SDS011;8937;51.236;6.794;2023-06-22T12:07:54;8.43;;;7.53;;
17636;SDS011;8937;51.236;6.794;2023-06-22T12:16:15;8.30;;;7.35;;
17636;SDS011;8937;51.236;6.794;2023-06-22T12:24:38;9.20;;;8.20;;
17636;SDS011;8937;51.236;6.794;2023-06-22T12:32:59;11.05;;;9.02;;
17636;SDS011;8937;51.236;6.794;2023-06-22T12:41:22;16.50;;;9.45;;
17636;SDS011;8937;51.236;6.794;2023-06-22T12:49:43;11.52;;;9.35;;
17636;SDS011;8937;51.236;6.794;2023-06-22T12:58:06;9.52;;;8.48;;
17636;SDS011;8937;51.236;6.794;2023-06-22T13:06:27;11.13;;;9.18;;
17636;SDS011;8937;51.236;6.794;2023-06-22T13:14:50;10.43;;;8.98;;
17636;SDS011;8937;51.236;6.794;2023-06-22T13:23:11;9.65;;;8.48;;
17636;SDS011;8937;51.236;6.794;2023-06-22T13:31:34;11.23;;;9.73;;
17636;SDS011;8937;51.236;6.794;2023-06-22T13:39:56;12.93;;;9.60;;
17636;SDS011;8937;51.236;6.794;2023-06-22T13:48:20;9.73;;;8.73;;
17636;SDS011;8937;51.236;6.794;2023-06-22T13:56:43;9.38;;;7.53;;
17636;SDS011;8937;51.236;6.794;2023-06-22T14:05:06;9.35;;;8.10;;
17636;SDS011;8937;51.236;6.794;2023-06-22T14:13:28;10.23;;;7.72;;
17636;SDS011;8937;51.236;6.794;2023-06-22T14:21:51;7.93;;;7.22;;
17636;SDS011;8937;51.236;6.794;2023-06-22T14:30:12;8.35;;;7.53;;
17636;SDS011;8937;51.236;6.794;2023-06-22T14:38:35;9.25;;;7.95;;
17636;SDS011;8937;51.236;6.794;2023-06-22T14:46:57;12.65;;;8.05;;
17636;SDS011;8937;51.236;6.794;2023-06-22T14:55:19;8.40;;;7.50;;
17636;SDS011;8937;51.236;6.794;2023-06-22T15:03:41;7.97;;;7.18;;
17636;SDS011;8937;51.236;6.794;2023-06-22T15:12:04;7.93;;;7.13;;
17636;SDS011;8937;51.236;6.794;2023-06-22T15:20:27;7.43;;;6.65;;
17636;SDS011;8937;51.236;6.794;2023-06-22T15:28:50;7.25;;;6.55;;
17636;SDS011;8937;51.236;6.794;2023-06-22T15:37:12;8.05;;;6.28;;
17636;SDS011;8937;51.236;6.794;2023-06-22T15:45:34;7.05;;;6.43;;
17636;SDS011;8937;51.236;6.794;2023-06-22T15:53:56;11.10;;;7.60;;
17636;SDS011;8937;51.236;6.794;2023-06-22T16:02:19;7.93;;;7.13;;
17636;SDS011;8937;51.236;6.794;2023-06-22T16:10:41;8.40;;;7.47;;
17636;SDS011;8937;51.236;6.794;2023-06-22T16:19:03;11.10;;;6.97;;
17636;SDS011;8937;51.236;6.794;2023-06-22T16:27:25;17.85;;;9.40;;
17636;SDS011;8937;51.236;6.794;2023-06-22T16:35:49;9.07;;;8.18;;
17636;SDS011;8937;51.236;6.794;2023-06-22T16:44:11;9.32;;;8.32;;
17636;SDS011;8937;51.236;6.794;2023-06-22T16:52:33;9.35;;;8.38;;
17636;SDS011;8937;51.236;6.794;2023-06-22T17:00:57;9.93;;;8.93;;
17636;SDS011;8937;51.236;6.794;2023-06-22T17:09:21;8.43;;;7.60;;
17636;SDS011;8937;51.236;6.794;2023-06-22T17:17:42;9.85;;;7.13;;
17636;SDS011;8937;51.236;6.794;2023-06-22T17:26:06;7.88;;;7.07;;
17636;SDS011;8937;51.236;6.794;2023-06-22T17:34:28;9.80;;;7.43;;
17636;SDS011;8937;51.236;6.794;2023-06-22T17:42:51;8.43;;;7.53;;
17636;SDS011;8937;51.236;6.794;2023-06-22T17:51:15;7.72;;;6.90;;
17636;SDS011;8937;51.236;6.794;2023-06-22T17:59:38;8.35;;;6.20;;
17636;SDS011;8937;51.236;6.794;2023-06-22T18:08:00;7.75;;;5.50;;
17636;SDS011;8937;51.236;6.794;2023-06-22T18:16:22;7.85;;;7.15;;
17636;SDS011;8937;51.236;6.794;2023-06-22T18:24:45;10.32;;;7.78;;
17636;SDS011;8937;51.236;6.794;2023-06-22T18:33:08;9.70;;;8.80;;
17636;SDS011;8937;51.236;6.794;2023-06-22T18:41:33;11.10;;;9.98;;
17636;SDS011;8937;51.236;6.794;2023-06-22T18:50:04;13.25;;;11.95;;
17636;SDS011;8937;51.236;6.794;2023-06-22T18:58:26;10.13;;;9.07;;
17636;SDS011;8937;51.236;6.794;2023-06-22T19:06:55;7.85;;;7.13;;
17636;SDS011;8937;51.236;6.794;2023-06-22T19:15:16;6.90;;;6.28;;
17636;SDS011;8937;51.236;6.794;2023-06-22T19:23:39;5.70;;;5.17;;
17636;SDS011;8937;51.236;6.794;2023-06-22T19:32:01;5.80;;;5.30;;
17636;SDS011;8937;51.236;6.794;2023-06-22T19:40:25;6.07;;;5.50;;
17636;SDS011;8937;51.236;6.794;2023-06-22T19:48:46;6.10;;;5.53;;
17636;SDS011;8937;51.236;6.794;2023-06-22T19:57:09;7.13;;;6.27;;
17636;SDS011;8937;51.236;6.794;2023-06-22T20:05:30;6.27;;;5.63;;
17636;SDS011;8937;51.236;6.794;2023-06-22T20:13:55;6.80;;;5.43;;
17636;SDS011;8937;51.236;6.794;2023-06-22T20:22:17;7.60;;;5.77;;
17636;SDS011;8937;51.236;6.794;2023-06-22T20:30:40;5.60;;;5.07;;
17636;SDS011;8937;51.236;6.794;2023-06-22T20:39:02;6.37;;;5.77;;
17636;SDS011;8937;51.236;6.794;2023-06-22T20:47:25;7.00;;;6.40;;
17636;SDS011;8937;51.236;6.794;2023-06-22T20:55:47;6.17;;;5.57;;
17636;SDS011;8937;51.236;6.794;2023-06-22T21:04:09;8.03;;;6.40;;
17636;SDS011;8937;51.236;6.794;2023-06-22T21:12:31;4.87;;;4.47;;
17636;SDS011;8937;51.236;6.794;2023-06-22T21:20:54;5.30;;;4.80;;
17636;SDS011;8937;51.236;6.794;2023-06-22T21:29:16;5.87;;;5.37;;
17636;SDS011;8937;51.236;6.794;2023-06-22T21:37:41;6.17;;;5.67;;
17636;SDS011;8937;51.236;6.794;2023-06-22T21:46:03;5.60;;;5.10;;
17636;SDS011;8937;51.236;6.794;2023-06-22T21:54:26;5.80;;;5.30;;
17636;SDS011;8937;51.236;6.794;2023-06-22T22:02:47;7.50;;;6.03;;
17636;SDS011;8937;51.236;6.794;2023-06-22T22:11:10;5.80;;;4.83;;
17636;SDS011;8937;51.236;6.794;2023-06-22T22:19:32;6.73;;;5.20;;
17636;SDS011;8937;51.236;6.794;2023-06-22T22:27:54;5.97;;;5.47;;
17636;SDS011;8937;51.236;6.794;2023-06-22T22:36:16;5.97;;;5.20;;
17636;SDS011;8937;51.236;6.794;2023-06-22T22:44:38;7.90;;;5.73;;
17636;SDS011;8937;51.236;6.794;2023-06-22T22:53:00;5.23;;;4.77;;
17636;SDS011;8937;51.236;6.794;2023-06-22T23:01:25;5.80;;;5.07;;
17636;SDS011;8937;51.236;6.794;2023-06-22T23:09:46;5.20;;;4.70;;
17636;SDS011;8937;51.236;6.794;2023-06-22T23:18:09;5.07;;;4.57;;
17636;SDS011;8937;51.236;6.794;2023-06-22T23:26:31;4.00;;;3.70;;
17636;SDS011;8937;51.236;6.794;2023-06-22T23:34:53;4.03;;;3.73;;
17636;SDS011;8937;51.236;6.794;2023-06-22T23:43:15;4.97;;;4.50;;
17636;SDS011;8937;51.236;6.794;2023-06-22T23:51:40;5.80;;;5.20;;
